Star, Idaho
Current Conditions -  °F | °C
As of 9:35 PM on Sunday 21 Dec 2014 (Local Time) from KMAN Reporting Station
Overcast Overcast  
Wind Chill: 38°   Ceiling: 4000
Heat Index: 41°   Visibility: 8mi
Dew Point: 41°   Wind: 5mph
Humidity: 100%   Direction: 220°SW
Pressure: 30.11"   Gusts: NA
Location:  43.69°N, 116.49°W
Report Text: KMAN 220435Z AUTO 22004KT 8SM OVC040 05/05 A3011 RMK AO1
Loading
Personal Weather Stations






























Interactive Weather Map New forecast layout! Learn more

10-Day Weather Forecast

Advertisements
Track Severe Weather on mobile